sensor_id;sensor_type;location;lat;lon;timestamp;pressure;altitude;pressure_sealevel;temperature;humidity
35224;BME280;21367;51.930;8.112;2023-07-02T00:04:16;100008.88;;;16.70;100.00
35224;BME280;21367;51.930;8.112;2023-07-02T00:09:20;100008.03;;;16.72;100.00
35224;BME280;21367;51.930;8.112;2023-07-02T00:14:26;100005.41;;;16.63;100.00
35224;BME280;21367;51.930;8.112;2023-07-02T00:19:30;99997.78;;;16.86;100.00
35224;BME280;21367;51.930;8.112;2023-07-02T00:24:33;99989.13;;;16.84;100.00
35224;BME280;21367;51.930;8.112;2023-07-02T00:29:40;99995.16;;;16.77;100.00
35224;BME280;21367;51.930;8.112;2023-07-02T00:34:44;100009.13;;;17.06;100.00
35224;BME280;21367;51.930;8.112;2023-07-02T00:39:48;99996.16;;;17.17;100.00
35224;BME280;21367;51.930;8.112;2023-07-02T00:44:55;99988.31;;;16.96;100.00
35224;BME280;21367;51.930;8.112;2023-07-02T00:50:05;99995.78;;;16.48;100.00
35224;BME280;21367;51.930;8.112;2023-07-02T00:55:10;99995.94;;;16.73;100.00
35224;BME280;21367;51.930;8.112;2023-07-02T01:00:17;99998.50;;;16.68;100.00
35224;BME280;21367;51.930;8.112;2023-07-02T01:05:22;99986.38;;;16.62;100.00
35224;BME280;21367;51.930;8.112;2023-07-02T01:10:26;99979.38;;;16.54;100.00
35224;BME280;21367;51.930;8.112;2023-07-02T01:15:34;99976.78;;;16.49;100.00
35224;BME280;21367;51.930;8.112;2023-07-02T01:20:41;99985.31;;;16.30;100.00
35224;BME280;21367;51.930;8.112;2023-07-02T01:25:45;99972.34;;;16.34;100.00
35224;BME280;21367;51.930;8.112;2023-07-02T01:30:48;99963.84;;;16.52;100.00
35224;BME280;21367;51.930;8.112;2023-07-02T01:35:54;99953.44;;;16.49;100.00
35224;BME280;21367;51.930;8.112;2023-07-02T01:40:59;99956.00;;;16.48;100.00
35224;BME280;21367;51.930;8.112;2023-07-02T01:46:02;99968.97;;;16.48;100.00
35224;BME280;21367;51.930;8.112;2023-07-02T01:51:08;99970.59;;;16.32;100.00
35224;BME280;21367;51.930;8.112;2023-07-02T01:56:12;99970.66;;;16.36;100.00
35224;BME280;21367;51.930;8.112;2023-07-02T02:01:15;99980.09;;;16.28;100.00
35224;BME280;21367;51.930;8.112;2023-07-02T02:06:22;99987.97;;;16.43;100.00
35224;BME280;21367;51.930;8.112;2023-07-02T02:11:25;99987.94;;;16.42;100.00
35224;BME280;21367;51.930;8.112;2023-07-02T02:16:29;99988.00;;;16.47;100.00
35224;BME280;21367;51.930;8.112;2023-07-02T02:21:37;99982.78;;;16.45;100.00
35224;BME280;21367;51.930;8.112;2023-07-02T02:26:40;99993.16;;;16.40;100.00
35224;BME280;21367;51.930;8.112;2023-07-02T02:31:44;99997.53;;;16.49;100.00
35224;BME280;21367;51.930;8.112;2023-07-02T02:36:50;99989.75;;;16.49;100.00
35224;BME280;21367;51.930;8.112;2023-07-02T02:41:56;99986.25;;;16.42;100.00
35224;BME280;21367;51.930;8.112;2023-07-02T02:47:00;99976.63;;;16.29;100.00
35224;BME280;21367;51.930;8.112;2023-07-02T02:52:08;99986.22;;;16.41;100.00
35224;BME280;21367;51.930;8.112;2023-07-02T02:57:12;99987.88;;;16.28;100.00
35224;BME280;21367;51.930;8.112;2023-07-02T03:02:15;99984.38;;;16.23;100.00
35224;BME280;21367;51.930;8.112;2023-07-02T03:07:22;99981.09;;;16.47;100.00
35224;BME280;21367;51.930;8.112;2023-07-02T03:12:28;99992.31;;;16.48;100.00
35224;BME280;21367;51.930;8.112;2023-07-02T03:17:32;99993.16;;;16.40;100.00
35224;BME280;21367;51.930;8.112;2023-07-02T03:22:38;99987.19;;;16.52;100.00
35224;BME280;21367;51.930;8.112;2023-07-02T03:27:41;99994.78;;;16.29;100.00
35224;BME280;21367;51.930;8.112;2023-07-02T03:32:45;100001.88;;;16.52;100.00
35224;BME280;21367;51.930;8.112;2023-07-02T03:37:51;100007.81;;;16.37;100.00
35224;BME280;21367;51.930;8.112;2023-07-02T03:42:55;100001.81;;;16.42;100.00
35224;BME280;21367;51.930;8.112;2023-07-02T03:47:59;100019.97;;;16.42;100.00
35224;BME280;21367;51.930;8.112;2023-07-02T03:53:05;100019.94;;;16.39;100.00
35224;BME280;21367;51.930;8.112;2023-07-02T03:58:09;100045.72;;;16.18;100.00
35224;BME280;21367;51.930;8.112;2023-07-02T04:03:13;100041.31;;;16.08;100.00
35224;BME280;21367;51.930;8.112;2023-07-02T04:08:19;100057.66;;;16.02;100.00
35224;BME280;21367;51.930;8.112;2023-07-02T04:13:25;100053.28;;;15.96;100.00
35224;BME280;21367;51.930;8.112;2023-07-02T04:18:28;100058.38;;;15.87;100.00
35224;BME280;21367;51.930;8.112;2023-07-02T04:23:34;100055.91;;;16.01;100.00
35224;BME280;21367;51.930;8.112;2023-07-02T04:28:38;100070.75;;;16.16;100.00
35224;BME280;21367;51.930;8.112;2023-07-02T04:33:42;100071.41;;;15.95;100.00
35224;BME280;21367;51.930;8.112;2023-07-02T04:38:48;100078.47;;;16.08;100.00
35224;BME280;21367;51.930;8.112;2023-07-02T04:43:51;100090.00;;;15.60;100.00
35224;BME280;21367;51.930;8.112;2023-07-02T04:48:55;100086.00;;;15.85;100.00
35224;BME280;21367;51.930;8.112;2023-07-02T04:54:01;100090.41;;;15.92;100.00
35224;BME280;21367;51.930;8.112;2023-07-02T04:59:05;100098.38;;;16.12;100.00
35224;BME280;21367;51.930;8.112;2023-07-02T05:04:09;100105.16;;;16.01;100.00
35224;BME280;21367;51.930;8.112;2023-07-02T05:09:16;100108.19;;;16.47;100.00
35224;BME280;21367;51.930;8.112;2023-07-02T05:14:19;100116.00;;;16.49;100.00
35224;BME280;21367;51.930;8.112;2023-07-02T05:19:23;100115.91;;;16.41;100.00
35224;BME280;21367;51.930;8.112;2023-07-02T05:24:29;100122.84;;;16.45;100.00
35224;BME280;21367;51.930;8.112;2023-07-02T05:29:33;100134.22;;;16.55;100.00
35224;BME280;21367;51.930;8.112;2023-07-02T05:34:36;100134.03;;;16.36;100.00
35224;BME280;21367;51.930;8.112;2023-07-02T05:39:43;100126.53;;;16.73;100.00
35224;BME280;21367;51.930;8.112;2023-07-02T05:44:46;100134.31;;;16.70;100.00
35224;BME280;21367;51.930;8.112;2023-07-02T05:49:50;100139.69;;;16.92;97.74
35224;BME280;21367;51.930;8.112;2023-07-02T05:54:56;100142.06;;;16.64;95.43
35224;BME280;21367;51.930;8.112;2023-07-02T05:59:59;100143.06;;;16.78;94.49
35224;BME280;21367;51.930;8.112;2023-07-02T06:05:12;100153.25;;;16.60;91.62
35224;BME280;21367;51.930;8.112;2023-07-02T06:10:18;100163.00;;;16.85;87.41
35224;BME280;21367;51.930;8.112;2023-07-02T06:15:22;100158.00;;;17.10;85.20
35224;BME280;21367;51.930;8.112;2023-07-02T06:20:26;100165.88;;;17.25;86.15
35224;BME280;21367;51.930;8.112;2023-07-02T06:25:33;100170.19;;;17.19;84.23
35224;BME280;21367;51.930;8.112;2023-07-02T06:30:36;100159.84;;;17.28;81.24
35224;BME280;21367;51.930;8.112;2023-07-02T06:35:40;100170.16;;;17.17;80.76
35224;BME280;21367;51.930;8.112;2023-07-02T06:40:46;100169.16;;;16.98;80.40
35224;BME280;21367;51.930;8.112;2023-07-02T06:45:50;100183.19;;;17.23;80.81
35224;BME280;21367;51.930;8.112;2023-07-02T06:50:55;100185.03;;;17.40;79.69
35224;BME280;21367;51.930;8.112;2023-07-02T06:56:01;100188.41;;;17.25;76.01
35224;BME280;21367;51.930;8.112;2023-07-02T07:01:05;100190.22;;;17.37;76.34
35224;BME280;21367;51.930;8.112;2023-07-02T07:06:08;100196.34;;;17.54;74.99
35224;BME280;21367;51.930;8.112;2023-07-02T07:11:15;100220.63;;;17.57;76.01
35224;BME280;21367;51.930;8.112;2023-07-02T07:16:18;100203.38;;;17.76;76.29
35224;BME280;21367;51.930;8.112;2023-07-02T07:21:22;100189.63;;;17.87;75.45
35224;BME280;21367;51.930;8.112;2023-07-02T07:26:29;100195.69;;;17.87;72.70
35224;BME280;21367;51.930;8.112;2023-07-02T07:31:32;100202.75;;;18.25;74.61
35224;BME280;21367;51.930;8.112;2023-07-02T07:36:37;100201.81;;;18.08;69.97
35224;BME280;21367;51.930;8.112;2023-07-02T07:41:46;100207.91;;;18.13;70.81
35224;BME280;21367;51.930;8.112;2023-07-02T07:46:50;100219.13;;;17.96;68.46
35224;BME280;21367;51.930;8.112;2023-07-02T07:51:53;100224.41;;;18.18;65.69
35224;BME280;21367;51.930;8.112;2023-07-02T07:57:00;100203.66;;;18.48;65.83
35224;BME280;21367;51.930;8.112;2023-07-02T08:02:04;100215.88;;;18.77;63.74
35224;BME280;21367;51.930;8.112;2023-07-02T08:07:09;100219.31;;;18.65;61.84
35224;BME280;21367;51.930;8.112;2023-07-02T08:12:16;100230.63;;;19.35;62.87
35224;BME280;21367;51.930;8.112;2023-07-02T08:17:19;100225.38;;;19.44;61.93
35224;BME280;21367;51.930;8.112;2023-07-02T08:22:23;100233.16;;;19.58;60.76
35224;BME280;21367;51.930;8.112;2023-07-02T08:27:29;100237.56;;;19.22;57.55
35224;BME280;21367;51.930;8.112;2023-07-02T08:32:33;100245.31;;;18.61;56.61
35224;BME280;21367;51.930;8.112;2023-07-02T08:37:37;100250.50;;;18.50;56.61
35224;BME280;21367;51.930;8.112;2023-07-02T08:42:44;100259.25;;;19.39;54.28
35224;BME280;21367;51.930;8.112;2023-07-02T08:47:48;100267.88;;;19.92;55.18
35224;BME280;21367;51.930;8.112;2023-07-02T08:52:54;100272.31;;;19.06;54.71
35224;BME280;21367;51.930;8.112;2023-07-02T08:58:00;100267.69;;;20.33;54.10
35224;BME280;21367;51.930;8.112;2023-07-02T09:03:12;100274.56;;;20.58;52.54
35224;BME280;21367;51.930;8.112;2023-07-02T09:08:23;100289.47;;;20.32;51.25
35224;BME280;21367;51.930;8.112;2023-07-02T09:13:29;100285.09;;;20.41;50.45
35224;BME280;21367;51.930;8.112;2023-07-02T09:18:32;100283.47;;;20.09;50.28
35224;BME280;21367;51.930;8.112;2023-07-02T09:23:36;100282.88;;;21.12;48.69
35224;BME280;21367;51.930;8.112;2023-07-02T09:28:43;100278.66;;;20.98;48.12
35224;BME280;21367;51.930;8.112;2023-07-02T09:33:46;100281.16;;;21.12;51.42
35224;BME280;21367;51.930;8.112;2023-07-02T09:38:53;100272.97;;;21.54;50.76
35224;BME280;21367;51.930;8.112;2023-07-02T09:44:00;100275.59;;;21.54;51.90
35224;BME280;21367;51.930;8.112;2023-07-02T09:54:10;100287.41;;;21.90;48.60
35224;BME280;21367;51.930;8.112;2023-07-02T09:59:16;100291.13;;;21.69;51.20
35224;BME280;21367;51.930;8.112;2023-07-02T10:04:20;100295.78;;;21.35;50.91
35224;BME280;21367;51.930;8.112;2023-07-02T10:09:35;100297.94;;;20.79;51.01
35224;BME280;21367;51.930;8.112;2023-07-02T10:14:45;100300.66;;;21.75;49.15
35224;BME280;21367;51.930;8.112;2023-07-02T10:19:52;100305.13;;;21.62;48.70
35224;BME280;21367;51.930;8.112;2023-07-02T10:24:57;100298.09;;;21.68;47.38
35224;BME280;21367;51.930;8.112;2023-07-02T10:30:06;100293.47;;;20.98;48.90
35224;BME280;21367;51.930;8.112;2023-07-02T10:35:13;100302.34;;;20.68;51.73
35224;BME280;21367;51.930;8.112;2023-07-02T10:40:17;100301.22;;;22.03;50.99
35224;BME280;21367;51.930;8.112;2023-07-02T10:45:31;100303.16;;;23.20;48.39
35224;BME280;21367;51.930;8.112;2023-07-02T10:50:35;100314.06;;;23.97;46.22
35224;BME280;21367;51.930;8.112;2023-07-02T10:55:38;100306.34;;;25.12;47.02
35224;BME280;21367;51.930;8.112;2023-07-02T11:00:49;100296.88;;;25.04;43.85
35224;BME280;21367;51.930;8.112;2023-07-02T11:05:53;100302.56;;;24.48;44.60
35224;BME280;21367;51.930;8.112;2023-07-02T11:11:05;100307.94;;;22.90;48.60
35224;BME280;21367;51.930;8.112;2023-07-02T11:16:20;100325.28;;;22.37;50.39
35224;BME280;21367;51.930;8.112;2023-07-02T11:21:26;100307.47;;;23.76;48.96
35224;BME280;21367;51.930;8.112;2023-07-02T11:26:39;100312.84;;;23.66;45.63
35224;BME280;21367;51.930;8.112;2023-07-02T11:31:46;100309.84;;;25.49;44.85
35224;BME280;21367;51.930;8.112;2023-07-02T11:36:50;100310.09;;;24.63;43.86
35224;BME280;21367;51.930;8.112;2023-07-02T11:41:54;100299.38;;;25.46;43.43
35224;BME280;21367;51.930;8.112;2023-07-02T11:47:00;100301.19;;;24.27;46.23
35224;BME280;21367;51.930;8.112;2023-07-02T11:52:04;100309.97;;;22.71;48.35
35224;BME280;21367;51.930;8.112;2023-07-02T11:57:09;100311.38;;;24.00;49.03
35224;BME280;21367;51.930;8.112;2023-07-02T12:02:16;100308.31;;;26.94;42.11
35224;BME280;21367;51.930;8.112;2023-07-02T12:07:19;100310.81;;;27.27;40.17
35224;BME280;21367;51.930;8.112;2023-07-02T12:12:23;100305.00;;;25.99;40.60
35224;BME280;21367;51.930;8.112;2023-07-02T12:17:29;100329.63;;;27.16;39.65
35224;BME280;21367;51.930;8.112;2023-07-02T12:22:33;100317.72;;;26.75;38.91
35224;BME280;21367;51.930;8.112;2023-07-02T12:27:36;100326.72;;;25.03;40.93
35224;BME280;21367;51.930;8.112;2023-07-02T12:32:42;100326.53;;;25.10;43.40
35224;BME280;21367;51.930;8.112;2023-07-02T12:37:49;100320.81;;;26.30;41.34
35224;BME280;21367;51.930;8.112;2023-07-02T12:42:53;100328.06;;;27.37;40.86
35224;BME280;21367;51.930;8.112;2023-07-02T12:47:59;100328.19;;;25.86;42.13
35224;BME280;21367;51.930;8.112;2023-07-02T12:53:03;100323.53;;;27.67;40.34
35224;BME280;21367;51.930;8.112;2023-07-02T12:58:06;100323.00;;;29.22;38.27
35224;BME280;21367;51.930;8.112;2023-07-02T13:03:13;100335.50;;;28.03;38.34
35224;BME280;21367;51.930;8.112;2023-07-02T13:08:17;100336.06;;;27.34;38.77
35224;BME280;21367;51.930;8.112;2023-07-02T13:13:21;100340.69;;;27.54;39.51
35224;BME280;21367;51.930;8.112;2023-07-02T13:18:27;100336.31;;;26.10;41.58
35224;BME280;21367;51.930;8.112;2023-07-02T13:23:31;100342.44;;;28.54;39.39
35224;BME280;21367;51.930;8.112;2023-07-02T13:28:34;100367.78;;;25.08;41.56
35224;BME280;21367;51.930;8.112;2023-07-02T13:33:41;100355.72;;;25.38;41.03
35224;BME280;21367;51.930;8.112;2023-07-02T13:38:46;100349.72;;;25.32;41.50
35224;BME280;21367;51.930;8.112;2023-07-02T13:43:50;100351.19;;;27.29;40.64
35224;BME280;21367;51.930;8.112;2023-07-02T13:48:56;100349.38;;;27.31;40.39
35224;BME280;21367;51.930;8.112;2023-07-02T13:54:00;100344.06;;;28.33;39.60
35224;BME280;21367;51.930;8.112;2023-07-02T13:59:06;100345.56;;;29.73;38.80
35224;BME280;21367;51.930;8.112;2023-07-02T14:04:10;100358.00;;;28.14;39.10
35224;BME280;21367;51.930;8.112;2023-07-02T14:09:14;100357.00;;;26.84;43.20
35224;BME280;21367;51.930;8.112;2023-07-02T14:14:20;100360.09;;;26.38;41.71
35224;BME280;21367;51.930;8.112;2023-07-02T14:19:24;100348.88;;;28.47;40.32
35224;BME280;21367;51.930;8.112;2023-07-02T14:24:28;100372.84;;;26.22;40.52
35224;BME280;21367;51.930;8.112;2023-07-02T14:29:34;100355.03;;;25.30;43.18
35224;BME280;21367;51.930;8.112;2023-07-02T14:34:38;100347.41;;;25.18;44.39
35224;BME280;21367;51.930;8.112;2023-07-02T14:39:41;100341.63;;;27.27;39.97
35224;BME280;21367;51.930;8.112;2023-07-02T14:44:47;100349.22;;;25.52;42.78
35224;BME280;21367;51.930;8.112;2023-07-02T14:49:51;100341.94;;;27.69;41.67
35224;BME280;21367;51.930;8.112;2023-07-02T14:54:54;100354.47;;;26.51;41.72
35224;BME280;21367;51.930;8.112;2023-07-02T15:00:03;100335.22;;;27.06;41.66
35224;BME280;21367;51.930;8.112;2023-07-02T15:05:08;100334.84;;;27.71;43.26
35224;BME280;21367;51.930;8.112;2023-07-02T15:10:11;100334.47;;;27.02;41.00
35224;BME280;21367;51.930;8.112;2023-07-02T15:15:18;100346.59;;;26.19;42.48
35224;BME280;21367;51.930;8.112;2023-07-02T15:20:22;100351.03;;;25.50;43.41
35224;BME280;21367;51.930;8.112;2023-07-02T15:25:26;100334.41;;;26.46;42.42
35224;BME280;21367;51.930;8.112;2023-07-02T15:30:32;100333.88;;;27.74;41.17
35224;BME280;21367;51.930;8.112;2023-07-02T15:35:39;100331.66;;;26.50;43.21
35224;BME280;21367;51.930;8.112;2023-07-02T15:40:45;100341.81;;;25.66;43.19
35224;BME280;21367;51.930;8.112;2023-07-02T15:45:54;100338.75;;;26.47;43.53
35224;BME280;21367;51.930;8.112;2023-07-02T15:50:57;100341.09;;;25.95;44.14
35224;BME280;21367;51.930;8.112;2023-07-02T15:56:01;100327.81;;;27.70;42.38
35224;BME280;21367;51.930;8.112;2023-07-02T16:01:12;100334.53;;;28.05;41.75
35224;BME280;21367;51.930;8.112;2023-07-02T16:06:16;100334.09;;;27.14;41.03
35224;BME280;21367;51.930;8.112;2023-07-02T16:11:20;100339.28;;;26.88;41.13
35224;BME280;21367;51.930;8.112;2023-07-02T16:16:27;100342.50;;;25.03;43.87
35224;BME280;21367;51.930;8.112;2023-07-02T16:21:30;100340.25;;;24.86;45.43
35224;BME280;21367;51.930;8.112;2023-07-02T16:26:34;100331.78;;;25.13;42.79
35224;BME280;21367;51.930;8.112;2023-07-02T16:31:43;100338.56;;;25.56;42.92
35224;BME280;21367;51.930;8.112;2023-07-02T16:36:47;100336.13;;;24.74;45.23
35224;BME280;21367;51.930;8.112;2023-07-02T16:41:51;100339.22;;;24.53;44.70
35224;BME280;21367;51.930;8.112;2023-07-02T16:46:57;100333.28;;;25.92;42.50
35224;BME280;21367;51.930;8.112;2023-07-02T16:52:01;100330.00;;;26.15;41.20
35224;BME280;21367;51.930;8.112;2023-07-02T16:57:06;100344.44;;;26.33;42.57
35224;BME280;21367;51.930;8.112;2023-07-02T17:02:13;100337.00;;;27.05;39.80
35224;BME280;21367;51.930;8.112;2023-07-02T17:07:16;100345.22;;;26.35;40.91
35224;BME280;21367;51.930;8.112;2023-07-02T17:12:21;100343.88;;;25.55;42.46
35224;BME280;21367;51.930;8.112;2023-07-02T17:17:27;100343.59;;;24.09;44.96
35224;BME280;21367;51.930;8.112;2023-07-02T17:22:31;100334.09;;;25.94;42.23
35224;BME280;21367;51.930;8.112;2023-07-02T17:27:35;100334.41;;;23.85;44.80
35224;BME280;21367;51.930;8.112;2023-07-02T17:32:41;100336.06;;;23.90;45.51
35224;BME280;21367;51.930;8.112;2023-07-02T17:37:45;100343.16;;;23.32;45.25
35224;BME280;21367;51.930;8.112;2023-07-02T17:42:48;100335.03;;;22.91;46.90
35224;BME280;21367;51.930;8.112;2023-07-02T17:47:55;100334.50;;;23.29;47.38
35224;BME280;21367;51.930;8.112;2023-07-02T17:52:59;100338.03;;;22.64;48.82
35224;BME280;21367;51.930;8.112;2023-07-02T17:58:02;100339.78;;;22.64;47.71
35224;BME280;21367;51.930;8.112;2023-07-02T18:03:09;100331.06;;;22.63;48.55
35224;BME280;21367;51.930;8.112;2023-07-02T18:08:13;100332.94;;;22.54;47.77
35224;BME280;21367;51.930;8.112;2023-07-02T18:13:17;100338.47;;;22.28;49.17
35224;BME280;21367;51.930;8.112;2023-07-02T18:18:25;100335.47;;;22.58;48.49
35224;BME280;21367;51.930;8.112;2023-07-02T18:23:29;100343.44;;;22.51;48.42
35224;BME280;21367;51.930;8.112;2023-07-02T18:28:32;100341.63;;;22.57;48.59
35224;BME280;21367;51.930;8.112;2023-07-02T18:33:39;100342.44;;;21.82;50.23
35224;BME280;21367;51.930;8.112;2023-07-02T18:38:43;100345.47;;;21.30;50.88
35224;BME280;21367;51.930;8.112;2023-07-02T18:43:46;100345.31;;;21.56;50.89
35224;BME280;21367;51.930;8.112;2023-07-02T18:48:53;100341.97;;;21.39;52.49
35224;BME280;21367;51.930;8.112;2023-07-02T18:53:56;100344.75;;;21.13;52.61
35224;BME280;21367;51.930;8.112;2023-07-02T18:59:00;100330.03;;;20.98;51.71
35224;BME280;21367;51.930;8.112;2023-07-02T19:04:06;100341.44;;;20.83;53.45
35224;BME280;21367;51.930;8.112;2023-07-02T19:09:10;100334.56;;;20.67;52.36
35224;BME280;21367;51.930;8.112;2023-07-02T19:14:14;100332.91;;;20.47;54.31
35224;BME280;21367;51.930;8.112;2023-07-02T19:19:20;100339.81;;;20.64;54.47
35224;BME280;21367;51.930;8.112;2023-07-02T19:24:24;100339.88;;;20.56;52.53
35224;BME280;21367;51.930;8.112;2023-07-02T19:29:28;100340.78;;;20.35;52.51
35224;BME280;21367;51.930;8.112;2023-07-02T19:34:35;100339.03;;;20.43;51.93
35224;BME280;21367;51.930;8.112;2023-07-02T19:39:42;100340.84;;;20.17;54.53
35224;BME280;21367;51.930;8.112;2023-07-02T19:44:46;100338.31;;;19.87;54.92
35224;BME280;21367;51.930;8.112;2023-07-02T19:49:55;100334.00;;;19.76;55.59
35224;BME280;21367;51.930;8.112;2023-07-02T19:55:00;100338.31;;;19.74;55.99
35224;BME280;21367;51.930;8.112;2023-07-02T20:00:05;100344.41;;;19.48;56.10
35224;BME280;21367;51.930;8.112;2023-07-02T20:05:12;100348.75;;;19.37;56.78
35224;BME280;21367;51.930;8.112;2023-07-02T20:10:15;100341.78;;;19.33;56.88
35224;BME280;21367;51.930;8.112;2023-07-02T20:15:19;100347.00;;;19.19;57.35
35224;BME280;21367;51.930;8.112;2023-07-02T20:20:26;100340.03;;;18.97;57.71
35224;BME280;21367;51.930;8.112;2023-07-02T20:25:35;100336.50;;;18.79;59.90
35224;BME280;21367;51.930;8.112;2023-07-02T20:30:39;100338.28;;;18.94;58.62
35224;BME280;21367;51.930;8.112;2023-07-02T20:35:47;100347.84;;;18.90;58.09
35224;BME280;21367;51.930;8.112;2023-07-02T20:40:58;100346.88;;;18.65;58.38
35224;BME280;21367;51.930;8.112;2023-07-02T20:46:04;100344.25;;;18.67;57.07
35224;BME280;21367;51.930;8.112;2023-07-02T20:51:10;100338.13;;;18.54;57.65
35224;BME280;21367;51.930;8.112;2023-07-02T20:56:14;100345.00;;;18.32;58.74
35224;BME280;21367;51.930;8.112;2023-07-02T21:01:18;100342.41;;;18.31;58.97
35224;BME280;21367;51.930;8.112;2023-07-02T21:06:24;100351.88;;;18.18;60.04
35224;BME280;21367;51.930;8.112;2023-07-02T21:11:28;100356.19;;;18.17;60.10
35224;BME280;21367;51.930;8.112;2023-07-02T21:16:32;100358.81;;;18.22;59.30
35224;BME280;21367;51.930;8.112;2023-07-02T21:21:39;100351.91;;;18.25;59.99
35224;BME280;21367;51.930;8.112;2023-07-02T21:26:46;100359.63;;;18.10;61.04
35224;BME280;21367;51.930;8.112;2023-07-02T21:31:50;100361.47;;;18.28;60.21
35224;BME280;21367;51.930;8.112;2023-07-02T21:36:56;100359.69;;;18.18;61.00
35224;BME280;21367;51.930;8.112;2023-07-02T21:42:00;100353.53;;;18.02;60.83
35224;BME280;21367;51.930;8.112;2023-07-02T21:47:04;100354.41;;;18.09;60.92
35224;BME280;21367;51.930;8.112;2023-07-02T21:52:10;100352.59;;;17.98;61.63
35224;BME280;21367;51.930;8.112;2023-07-02T21:57:14;100357.91;;;18.12;62.19
35224;BME280;21367;51.930;8.112;2023-07-02T22:02:17;100345.66;;;17.94;62.72
35224;BME280;21367;51.930;8.112;2023-07-02T22:07:24;100360.31;;;17.86;62.61
35224;BME280;21367;51.930;8.112;2023-07-02T22:12:27;100356.81;;;17.78;62.43
35224;BME280;21367;51.930;8.112;2023-07-02T22:17:31;100344.47;;;17.52;62.97
35224;BME280;21367;51.930;8.112;2023-07-02T22:22:37;100344.59;;;17.68;63.36
35224;BME280;21367;51.930;8.112;2023-07-02T22:27:42;100344.50;;;17.55;63.27
35224;BME280;21367;51.930;8.112;2023-07-02T22:32:45;100338.47;;;17.64;63.02
35224;BME280;21367;51.930;8.112;2023-07-02T22:37:52;100332.50;;;17.74;63.12
35224;BME280;21367;51.930;8.112;2023-07-02T22:42:56;100334.13;;;17.60;64.60
35224;BME280;21367;51.930;8.112;2023-07-02T22:47:59;100326.31;;;17.57;63.69
35224;BME280;21367;51.930;8.112;2023-07-02T22:53:06;100326.28;;;17.52;63.88
35224;BME280;21367;51.930;8.112;2023-07-02T22:58:09;100334.75;;;17.28;64.49
35224;BME280;21367;51.930;8.112;2023-07-02T23:03:13;100323.25;;;17.02;65.01
35224;BME280;21367;51.930;8.112;2023-07-02T23:08:21;100324.28;;;17.19;65.03
35224;BME280;21367;51.930;8.112;2023-07-02T23:13:24;100320.03;;;17.32;64.83
35224;BME280;21367;51.930;8.112;2023-07-02T23:18:28;100316.38;;;17.05;66.31
35224;BME280;21367;51.930;8.112;2023-07-02T23:23:37;100311.16;;;17.05;66.20
35224;BME280;21367;51.930;8.112;2023-07-02T23:28:43;100304.34;;;17.20;66.74
35224;BME280;21367;51.930;8.112;2023-07-02T23:33:53;100297.28;;;17.02;66.62
35224;BME280;21367;51.930;8.112;2023-07-02T23:39:00;100299.16;;;17.18;66.79
35224;BME280;21367;51.930;8.112;2023-07-02T23:44:05;100298.38;;;16.43;68.67
35224;BME280;21367;51.930;8.112;2023-07-02T23:49:09;100293.47;;;16.68;67.98
35224;BME280;21367;51.930;8.112;2023-07-02T23:54:15;100283.97;;;16.71;67.87
35224;BME280;21367;51.930;8.112;2023-07-02T23:59:18;100291.00;;;16.77;68.59
